createdAt,value
2022-11-01T00:01:41.185Z,95747.44
2022-11-01T00:04:08.865Z,95753.28
2022-11-01T00:06:36.345Z,95751.44
2022-11-01T00:09:04.133Z,95731.75
2022-11-01T00:11:31.285Z,95707.78
2022-11-01T00:13:58.717Z,95706.38
2022-11-01T00:16:26.254Z,95708.22
2022-11-01T00:18:53.414Z,95704.03
2022-11-01T00:21:20.956Z,95707.00
2022-11-01T00:23:48.404Z,95716.00
2022-11-01T00:26:21.988Z,95708.94
2022-11-01T00:28:50.449Z,95705.66
2022-11-01T00:31:19.333Z,95710.34
2022-11-01T00:33:46.638Z,95710.03
2022-11-01T00:36:14.535Z,95709.13
2022-11-01T00:38:41.695Z,95711.03
2022-11-01T00:41:09.371Z,95721.25
2022-11-01T00:43:36.564Z,95729.13
2022-11-01T00:46:04.640Z,95726.72
2022-11-01T00:48:31.973Z,95737.75
2022-11-01T00:50:59.036Z,95729.91
2022-11-01T00:53:26.096Z,95734.00
2022-11-01T00:55:53.393Z,95722.25
2022-11-01T00:58:20.502Z,95731.56
2022-11-01T01:00:47.793Z,95721.63
2022-11-01T01:03:15.073Z,95720.63
2022-11-01T01:05:42.137Z,95723.06
2022-11-01T01:08:09.343Z,95719.91
2022-11-01T01:10:36.435Z,95719.19
2022-11-01T01:13:04.159Z,95713.72
2022-11-01T01:15:31.622Z,95724.91
2022-11-01T01:17:58.961Z,95716.13
2022-11-01T01:20:26.613Z,95719.38
2022-11-01T01:22:53.658Z,95726.06
2022-11-01T01:25:20.982Z,95727.72
2022-11-01T01:27:48.100Z,95721.03
2022-11-01T01:30:15.679Z,95718.19
2022-11-01T01:32:43.374Z,95718.38
2022-11-01T01:35:10.723Z,95725.72
2022-11-01T01:37:37.948Z,95732.97
2022-11-01T01:40:06.557Z,95729.78
2022-11-01T01:42:41.724Z,95724.16
2022-11-01T01:45:31.257Z,95722.31
2022-11-01T01:48:22.459Z,95721.63
2022-11-01T01:50:57.182Z,95722.47
2022-11-01T01:53:30.109Z,95725.66
2022-11-01T01:56:03.282Z,95730.28
2022-11-01T01:58:54.857Z,95721.75
2022-11-01T02:01:22.105Z,95726.13
2022-11-01T02:03:49.820Z,95730.66
2022-11-01T02:06:18.895Z,95731.06
2022-11-01T02:08:52.335Z,95725.06
2022-11-01T02:11:20.680Z,95739.34
2022-11-01T02:13:48.193Z,95729.81
2022-11-01T02:16:34.048Z,95727.44
2022-11-01T02:19:19.718Z,95725.94
2022-11-01T02:21:54.654Z,95733.09
2022-11-01T02:24:30.810Z,95738.97
2022-11-01T02:27:09.009Z,95742.53
2022-11-01T02:29:45.545Z,95731.53
2022-11-01T02:32:31.241Z,95729.97
2022-11-01T02:35:20.138Z,95748.19
2022-11-01T02:37:55.632Z,95742.56
2022-11-01T02:40:28.766Z,95748.88
2022-11-01T02:43:07.903Z,95756.06
2022-11-01T02:45:39.683Z,95748.84
2022-11-01T02:48:07.000Z,95750.84
2022-11-01T02:50:42.351Z,95755.09
2022-11-01T02:53:10.065Z,95765.41
2022-11-01T02:55:37.177Z,95764.25
2022-11-01T02:58:16.200Z,95753.59
2022-11-01T03:00:44.463Z,95754.91
2022-11-01T03:03:28.509Z,95767.78
2022-11-01T03:06:02.650Z,95775.69
2022-11-01T03:08:44.720Z,95778.91
2022-11-01T03:11:20.761Z,95772.47
2022-11-01T03:13:52.389Z,95776.41
2022-11-01T03:16:27.375Z,95758.28
2022-11-01T03:19:06.372Z,95757.47
2022-11-01T03:21:46.525Z,95748.88
2022-11-01T03:24:26.988Z,95763.13
2022-11-01T03:27:10.497Z,95781.66
2022-11-01T03:29:39.563Z,95789.22
2022-11-01T03:32:07.546Z,95788.44
2022-11-01T03:34:37.382Z,95791.59
2022-11-01T03:37:09.033Z,95790.78
2022-11-01T03:39:42.793Z,95789.31
2022-11-01T03:42:15.075Z,95797.94
2022-11-01T03:44:46.669Z,95799.09
2022-11-01T03:47:15.159Z,95806.59
2022-11-01T03:49:42.224Z,95801.06
2022-11-01T03:52:09.361Z,95798.75
2022-11-01T03:54:36.413Z,95813.41
2022-11-01T03:57:03.551Z,95811.41
2022-11-01T03:59:30.673Z,95812.13
2022-11-01T04:01:57.953Z,95821.13
2022-11-01T04:04:25.112Z,95824.69
2022-11-01T04:06:52.238Z,95819.91
2022-11-01T04:09:19.269Z,95823.97
2022-11-01T04:11:46.339Z,95835.78
2022-11-01T04:14:31.721Z,95839.72
2022-11-01T04:17:17.169Z,95834.59
2022-11-01T04:20:02.486Z,95856.25
2022-11-01T04:22:29.572Z,95855.44
2022-11-01T04:24:56.621Z,95858.56
2022-11-01T04:27:23.681Z,95855.03
2022-11-01T04:29:50.760Z,95861.69
2022-11-01T04:32:17.821Z,95871.16
2022-11-01T04:34:45.047Z,95860.19
2022-11-01T04:37:12.383Z,95864.06
2022-11-01T04:39:39.569Z,95864.94
2022-11-01T04:42:06.677Z,95868.50
2022-11-01T04:44:33.866Z,95861.81
2022-11-01T04:47:00.943Z,95853.13
2022-11-01T04:49:27.983Z,95862.22
2022-11-01T04:51:55.023Z,95868.84
2022-11-01T04:54:22.118Z,95870.44
2022-11-01T04:56:49.223Z,95872.81
2022-11-01T04:59:16.280Z,95873.97
2022-11-01T05:01:45.124Z,95873.56
2022-11-01T05:04:12.356Z,95875.97
2022-11-01T05:06:39.513Z,95874.78
2022-11-01T05:09:06.590Z,95872.34
2022-11-01T05:11:33.775Z,95867.22
2022-11-01T05:14:00.818Z,95863.72
2022-11-01T05:16:27.876Z,95872.06
2022-11-01T05:18:54.919Z,95887.81
2022-11-01T05:21:21.978Z,95886.97
2022-11-01T05:23:49.109Z,95888.63
2022-11-01T05:26:16.233Z,95894.97
2022-11-01T05:28:43.361Z,95889.88
2022-11-01T05:31:10.876Z,95908.44
2022-11-01T05:33:37.982Z,95909.25
2022-11-01T05:36:05.281Z,95890.72
2022-11-01T05:38:32.431Z,95883.97
2022-11-01T05:41:02.324Z,95887.97
2022-11-01T05:43:29.579Z,95892.75
2022-11-01T05:45:56.657Z,95892.72
2022-11-01T05:48:23.761Z,95892.63
2022-11-01T05:50:50.854Z,95882.38
2022-11-01T05:53:17.923Z,95890.66
2022-11-01T05:55:44.959Z,95895.00
2022-11-01T05:58:12.092Z,95898.09
2022-11-01T06:00:39.274Z,95902.81
2022-11-01T06:03:07.176Z,95913.03
2022-11-01T06:05:34.711Z,95900.84
2022-11-01T06:08:02.382Z,95891.53
2022-11-01T06:10:30.239Z,95909.28
2022-11-01T06:12:57.673Z,95914.03
2022-11-01T06:15:24.975Z,95910.91
2022-11-01T06:17:57.279Z,95931.09
2022-11-01T06:20:29.519Z,95936.22
2022-11-01T06:22:57.921Z,95946.84
2022-11-01T06:25:27.956Z,95954.34
2022-11-01T06:27:55.035Z,95962.28
2022-11-01T06:30:22.141Z,95961.44
2022-11-01T06:32:49.196Z,95964.59
2022-11-01T06:35:16.299Z,95971.75
2022-11-01T06:37:43.404Z,95963.84
2022-11-01T06:40:12.909Z,95977.31
2022-11-01T06:42:45.370Z,95982.06
2022-11-01T06:45:14.523Z,95978.53
2022-11-01T06:47:46.299Z,95986.88
2022-11-01T06:50:13.443Z,95998.66
2022-11-01T06:52:40.476Z,96000.25
2022-11-01T06:55:08.038Z,95995.88
2022-11-01T06:57:35.076Z,96014.00
2022-11-01T07:00:02.285Z,96016.03
2022-11-01T07:02:30.059Z,96014.88
2022-11-01T07:04:57.321Z,95988.19
2022-11-01T07:07:24.376Z,96023.19
2022-11-01T07:09:51.482Z,96024.41
2022-11-01T07:12:18.743Z,96024.78
2022-11-01T07:14:45.839Z,96036.66
2022-11-01T07:17:12.899Z,96036.63
2022-11-01T07:19:39.951Z,96043.72
2022-11-01T07:22:08.436Z,96042.97
2022-11-01T07:24:35.451Z,96047.25
2022-11-01T07:27:02.496Z,96044.53
2022-11-01T07:29:29.606Z,96044.94
2022-11-01T07:31:56.779Z,96045.72
2022-11-01T07:34:23.953Z,96057.19
2022-11-01T07:36:53.982Z,96058.75
2022-11-01T07:39:21.050Z,96057.97
2022-11-01T07:41:48.163Z,96071.75
2022-11-01T07:44:15.213Z,96064.28
2022-11-01T07:46:42.273Z,96073.72
2022-11-01T07:49:09.846Z,96076.47
2022-11-01T07:51:37.011Z,96077.63
2022-11-01T07:54:04.267Z,96078.44
2022-11-01T07:56:31.306Z,96064.69
2022-11-01T07:58:58.395Z,96080.81
2022-11-01T08:01:25.569Z,96085.91
2022-11-01T08:03:52.745Z,96091.03
2022-11-01T08:08:49.085Z,96118.50
2022-11-01T08:11:16.131Z,96114.56
2022-11-01T08:13:43.230Z,96126.72
2022-11-01T08:16:10.264Z,96121.19
2022-11-01T08:18:37.337Z,96123.94
2022-11-01T08:21:04.579Z,96134.16
2022-11-01T08:23:31.701Z,96151.41
2022-11-01T08:25:58.752Z,96149.81
2022-11-01T08:28:28.392Z,96159.28
2022-11-01T08:30:55.449Z,96156.50
2022-11-01T08:33:22.614Z,96159.97
2022-11-01T08:35:50.875Z,96160.34
2022-11-01T08:38:18.946Z,96170.25
2022-11-01T08:40:46.004Z,96165.47
2022-11-01T08:43:13.071Z,96165.44
2022-11-01T08:45:40.355Z,96171.34
2022-11-01T08:48:09.329Z,96169.44
2022-11-01T08:50:36.426Z,96183.59
2022-11-01T08:53:14.435Z,96173.41
2022-11-01T08:55:41.969Z,96183.63
2022-11-01T08:58:09.561Z,96178.13
2022-11-01T09:00:36.946Z,96172.66
2022-11-01T09:03:04.339Z,96182.56
2022-11-01T09:05:31.670Z,96187.25
2022-11-01T09:08:00.279Z,96186.91
2022-11-01T09:10:29.134Z,96188.44
2022-11-01T09:12:57.829Z,96183.75
2022-11-01T09:15:25.178Z,96180.63
2022-11-01T09:17:53.025Z,96177.47
2022-11-01T09:20:20.188Z,96182.97
2022-11-01T09:22:51.243Z,96182.19
2022-11-01T09:25:18.355Z,96186.09
2022-11-01T09:27:45.456Z,96204.97
2022-11-01T09:30:12.770Z,96198.69
2022-11-01T09:32:39.856Z,96205.75
2022-11-01T09:35:07.446Z,96198.34
2022-11-01T09:37:34.666Z,96211.31
2022-11-01T09:40:03.277Z,96216.44
2022-11-01T09:42:39.740Z,96204.22
2022-11-01T09:45:19.213Z,96196.38
2022-11-01T09:47:48.783Z,96203.44
2022-11-01T09:50:25.279Z,96203.44
2022-11-01T09:52:54.937Z,96207.41
2022-11-01T09:55:30.979Z,96207.00
2022-11-01T09:58:06.725Z,96205.84
2022-11-01T10:00:39.088Z,96212.91
2022-11-01T10:03:33.447Z,96214.47
2022-11-01T10:06:19.295Z,96216.75
2022-11-01T10:08:46.718Z,96204.97
2022-11-01T10:11:39.659Z,96200.25
2022-11-01T10:14:23.193Z,96218.34
2022-11-01T10:17:03.642Z,96217.16
2022-11-01T10:19:35.268Z,96219.91
2022-11-01T10:22:15.701Z,96221.50
2022-11-01T10:24:52.530Z,96223.47
2022-11-01T10:27:26.691Z,96216.84
2022-11-01T10:30:04.334Z,96221.50
2022-11-01T10:32:35.068Z,96220.38
2022-11-01T10:35:10.119Z,96223.94
2022-11-01T10:38:11.027Z,96228.22
2022-11-01T10:40:47.895Z,96243.59
2022-11-01T10:43:19.446Z,96219.97
2022-11-01T10:45:51.267Z,96215.25
2022-11-01T10:48:35.649Z,96214.88
2022-11-01T10:51:06.293Z,96225.50
2022-11-01T10:53:55.515Z,96240.44
2022-11-01T10:56:29.718Z,96236.50
2022-11-01T10:59:16.843Z,96238.88
2022-11-01T11:01:45.094Z,96231.03
2022-11-01T11:04:15.710Z,96232.59
2022-11-01T11:06:43.488Z,96223.56
2022-11-01T11:09:26.683Z,96231.44
2022-11-01T11:11:59.952Z,96223.53
2022-11-01T11:14:31.591Z,96227.50
2022-11-01T11:17:00.048Z,96225.47
2022-11-01T11:19:29.750Z,96212.09
2022-11-01T11:21:58.973Z,96212.94
2022-11-01T11:24:28.682Z,96226.72
2022-11-01T11:26:57.379Z,96218.06
2022-11-01T11:29:40.313Z,96225.94
2022-11-01T11:32:18.892Z,96225.91
2022-11-01T11:35:13.186Z,96221.56
2022-11-01T11:37:49.967Z,96216.03
2022-11-01T11:40:17.224Z,96217.63
2022-11-01T11:42:45.889Z,96223.56
2022-11-01T11:45:30.612Z,96216.84
2022-11-01T11:48:15.548Z,96221.91
2022-11-01T11:50:43.423Z,96225.47
2022-11-01T11:53:24.857Z,96230.22
2022-11-01T11:56:06.549Z,96222.25
2022-11-01T11:58:38.257Z,96234.09
2022-11-01T12:01:08.355Z,96234.53
2022-11-01T12:03:56.839Z,96223.09
2022-11-01T12:06:27.153Z,96236.00
2022-11-01T12:08:59.288Z,96228.09
2022-11-01T12:11:40.240Z,96231.75
2022-11-01T12:14:21.708Z,96239.63
2022-11-01T12:16:49.489Z,96224.22
2022-11-01T12:19:27.466Z,96234.78
2022-11-01T12:21:57.070Z,96234.72
2022-11-01T12:24:32.490Z,96233.56
2022-11-01T12:27:03.969Z,96231.53
2022-11-01T12:30:11.405Z,96230.91
2022-11-01T12:32:50.681Z,96235.63
2022-11-01T12:35:23.436Z,96234.78
2022-11-01T12:38:08.388Z,96216.25
2022-11-01T12:40:42.155Z,96226.06
2022-11-01T12:43:15.057Z,96217.38
2022-11-01T12:45:52.620Z,96229.16
2022-11-01T12:48:25.699Z,96233.88
2022-11-01T12:51:03.487Z,96222.94
2022-11-01T12:53:44.286Z,96231.22
2022-11-01T12:56:12.019Z,96218.16
2022-11-01T12:58:39.221Z,96219.59
2022-11-01T13:01:28.172Z,96231.47
2022-11-01T13:04:25.472Z,96235.47
2022-11-01T13:07:13.516Z,96243.44
2022-11-01T13:10:08.440Z,96232.31
2022-11-01T13:12:39.102Z,96221.50
2022-11-01T13:15:16.873Z,96233.09
2022-11-01T13:17:52.749Z,96222.88
2022-11-01T13:20:59.985Z,96225.09
2022-11-01T13:23:27.012Z,96236.41
2022-11-01T13:26:07.920Z,96232.69
2022-11-01T13:28:47.355Z,96239.84
2022-11-01T13:31:23.352Z,96235.41
2022-11-01T13:34:00.985Z,96233.06
2022-11-01T13:36:53.701Z,96236.94
2022-11-01T13:39:33.971Z,96224.06
2022-11-01T13:42:12.871Z,96230.78
2022-11-01T13:44:47.640Z,96239.72
2022-11-01T13:47:20.460Z,96225.63
2022-11-01T13:49:53.103Z,96232.22
2022-11-01T13:52:26.892Z,96222.84
2022-11-01T13:54:58.129Z,96221.31
2022-11-01T13:57:27.525Z,96222.50
2022-11-01T13:59:55.980Z,96226.47
2022-11-01T14:02:23.457Z,96229.53
2022-11-01T14:05:11.120Z,96224.97
2022-11-01T14:07:44.254Z,96235.28
2022-11-01T14:10:17.380Z,96234.38
2022-11-01T14:12:48.198Z,96230.56
2022-11-01T14:15:22.115Z,96227.13
2022-11-01T14:17:52.517Z,96237.72
2022-11-01T14:20:25.606Z,96234.53
2022-11-01T14:22:54.234Z,96241.34
2022-11-01T14:28:17.771Z,96250.38
2022-11-01T14:30:49.317Z,96248.47
2022-11-01T14:33:21.991Z,96243.25
2022-11-01T14:35:55.829Z,96251.06
2022-11-01T14:38:35.537Z,96248.72
2022-11-01T14:41:04.310Z,96249.44
2022-11-01T14:43:35.881Z,96251.25
2022-11-01T14:46:09.565Z,96247.56
2022-11-01T14:48:46.351Z,96246.28
2022-11-01T14:51:34.749Z,96248.66
2022-11-01T14:54:11.572Z,96248.38
2022-11-01T14:56:41.279Z,96247.09
2022-11-01T14:59:14.439Z,96246.31
2022-11-01T15:01:47.182Z,96243.19
2022-11-01T15:04:29.441Z,96240.72
2022-11-01T15:06:58.635Z,96241.97
2022-11-01T15:09:30.962Z,96237.47
2022-11-01T15:12:25.256Z,96248.84
2022-11-01T15:14:55.132Z,96237.63
2022-11-01T15:17:29.144Z,96246.88
2022-11-01T15:19:57.285Z,96247.13
2022-11-01T15:22:28.077Z,96250.28
2022-11-01T15:24:58.627Z,96255.78
2022-11-01T15:27:36.661Z,96255.88
2022-11-01T15:30:04.782Z,96268.09
2022-11-01T15:32:34.749Z,96275.66
2022-11-01T15:35:18.898Z,96267.44
2022-11-01T15:37:50.926Z,96267.19
2022-11-01T15:40:31.387Z,96267.22
2022-11-01T15:43:00.487Z,96264.09
2022-11-01T15:45:30.815Z,96271.94
2022-11-01T15:48:02.125Z,96267.97
2022-11-01T15:50:35.020Z,96264.78
2022-11-01T15:53:04.436Z,96267.09
2022-11-01T15:55:36.074Z,96268.66
2022-11-01T15:58:08.771Z,96267.81
2022-11-01T16:00:43.091Z,96271.66
2022-11-01T16:03:28.152Z,96270.09
2022-11-01T16:06:00.629Z,96267.63
2022-11-01T16:08:39.816Z,96269.88
2022-11-01T16:11:07.414Z,96271.84
2022-11-01T16:13:35.098Z,96276.47
2022-11-01T16:16:12.801Z,96275.63
2022-11-01T16:18:43.390Z,96285.34
2022-11-01T16:21:20.226Z,96277.88
2022-11-01T16:23:56.986Z,96271.28
2022-11-01T16:26:24.514Z,96269.78
2022-11-01T16:28:53.307Z,96267.81
2022-11-01T16:31:28.369Z,96277.06
2022-11-01T16:33:57.063Z,96269.03
2022-11-01T16:36:35.645Z,96283.56
2022-11-01T16:39:25.028Z,96277.16
2022-11-01T16:41:52.685Z,96286.63
2022-11-01T16:44:20.780Z,96283.72
2022-11-01T16:46:48.053Z,96285.06
2022-11-01T16:49:15.050Z,96290.41
2022-11-01T16:51:42.132Z,96290.69
2022-11-01T16:54:15.561Z,96290.28
2022-11-01T16:56:49.268Z,96299.53
2022-11-01T16:59:24.995Z,96294.84
2022-11-01T17:01:54.935Z,96301.94
2022-11-01T17:04:22.650Z,96299.53
2022-11-01T17:06:50.561Z,96298.69
2022-11-01T17:09:19.515Z,96300.19
2022-11-01T17:11:51.172Z,96308.09
2022-11-01T17:14:20.371Z,96308.09
2022-11-01T17:16:49.453Z,96310.41
2022-11-01T17:19:25.209Z,96307.16
2022-11-01T17:21:52.884Z,96303.91
2022-11-01T17:24:22.758Z,96301.88
2022-11-01T17:26:51.239Z,96303.06
2022-11-01T17:29:18.395Z,96307.50
2022-11-01T17:31:45.523Z,96309.66
2022-11-01T17:34:12.629Z,96311.84
2022-11-01T17:36:44.921Z,96312.44
2022-11-01T17:39:11.997Z,96320.84
2022-11-01T17:41:39.383Z,96320.13
2022-11-01T17:44:06.505Z,96317.88
2022-11-01T17:46:33.627Z,96315.38
2022-11-01T17:49:00.775Z,96318.31
2022-11-01T17:51:27.813Z,96318.22
2022-11-01T17:53:56.340Z,96320.44
2022-11-01T17:56:24.215Z,96326.53
2022-11-01T17:58:53.524Z,96313.47
2022-11-01T18:01:21.658Z,96317.50
2022-11-01T18:03:49.151Z,96314.75
2022-11-01T18:06:16.931Z,96307.81
2022-11-01T18:08:50.235Z,96318.84
2022-11-01T18:11:33.211Z,96326.75
2022-11-01T18:14:15.811Z,96317.13
2022-11-01T18:16:49.132Z,96301.63
2022-11-01T18:19:37.525Z,96317.06
2022-11-01T18:22:21.375Z,96317.47
2022-11-01T18:25:20.502Z,96317.63
2022-11-01T18:27:47.598Z,96310.09
2022-11-01T18:30:17.514Z,96317.53
2022-11-01T18:33:04.842Z,96315.13
2022-11-01T18:35:38.906Z,96313.06
2022-11-01T18:38:30.310Z,96312.66
2022-11-01T18:41:02.387Z,96311.47
2022-11-01T18:43:34.898Z,96312.72
2022-11-01T18:46:25.136Z,96309.03
2022-11-01T18:48:59.434Z,96309.88
2022-11-01T18:51:28.755Z,96314.63
2022-11-01T18:54:12.526Z,96304.50
2022-11-01T18:56:48.350Z,96301.22
2022-11-01T18:59:26.122Z,96312.75
2022-11-01T19:02:00.242Z,96308.06
2022-11-01T19:04:31.144Z,96311.88
2022-11-01T19:07:22.711Z,96311.28
2022-11-01T19:09:52.103Z,96313.28
2022-11-01T19:12:27.797Z,96307.41
2022-11-01T19:15:02.186Z,96306.72
2022-11-01T19:17:37.271Z,96303.63
2022-11-01T19:20:20.645Z,96305.97
2022-11-01T19:22:47.915Z,96308.34
2022-11-01T19:25:20.448Z,96307.50
2022-11-01T19:27:53.385Z,96306.97
2022-11-01T19:30:24.705Z,96307.31
2022-11-01T19:32:54.074Z,96309.84
2022-11-01T19:35:22.663Z,96311.41
2022-11-01T19:37:52.424Z,96303.94
2022-11-01T19:40:32.532Z,96311.28
2022-11-01T19:43:10.151Z,96310.50
2022-11-01T19:45:43.892Z,96306.53
2022-11-01T19:48:13.129Z,96318.59
2022-11-01T19:50:42.024Z,96313.13
2022-11-01T19:53:17.992Z,96313.81
2022-11-01T19:55:59.899Z,96308.69
2022-11-01T19:58:43.555Z,96323.16
2022-11-01T20:01:17.019Z,96312.28
2022-11-01T20:03:47.381Z,96315.41
2022-11-01T20:06:30.308Z,96321.06
2022-11-01T20:09:02.753Z,96323.16
2022-11-01T20:11:33.590Z,96316.19
2022-11-01T20:14:00.992Z,96323.13
2022-11-01T20:16:28.272Z,96319.91
2022-11-01T20:18:55.468Z,96326.94
2022-11-01T20:21:22.513Z,96324.72
2022-11-01T20:23:50.175Z,96320.84
2022-11-01T20:26:17.328Z,96318.13
2022-11-01T20:28:44.429Z,96324.72
2022-11-01T20:31:11.559Z,96326.34
2022-11-01T20:33:38.706Z,96322.41
2022-11-01T20:36:10.983Z,96326.38
2022-11-01T20:38:38.917Z,96332.31
2022-11-01T20:41:06.263Z,96328.19
2022-11-01T20:43:33.345Z,96323.34
2022-11-01T20:46:00.458Z,96326.50
2022-11-01T20:48:27.586Z,96319.56
2022-11-01T20:50:54.872Z,96318.78
2022-11-01T20:53:24.816Z,96326.69
2022-11-01T20:55:55.806Z,96319.63
2022-11-01T20:58:22.859Z,96328.19
2022-11-01T21:00:51.507Z,96330.44
2022-11-01T21:03:20.998Z,96323.78
2022-11-01T21:05:49.030Z,96321.38
2022-11-01T21:08:27.924Z,96318.72
2022-11-01T21:10:59.378Z,96319.47
2022-11-01T21:13:33.902Z,96321.03
2022-11-01T21:16:02.564Z,96330.47
2022-11-01T21:18:37.223Z,96328.88
2022-11-01T21:21:13.252Z,96329.00
2022-11-01T21:23:42.947Z,96330.19
2022-11-01T21:26:23.372Z,96335.78
2022-11-01T21:28:54.400Z,96332.19
2022-11-01T21:31:34.358Z,96337.00
2022-11-01T21:34:10.445Z,96332.69
2022-11-01T21:36:41.297Z,96329.00
2022-11-01T21:39:17.058Z,96329.75
2022-11-01T21:41:52.085Z,96331.16
2022-11-01T21:44:38.723Z,96330.81
2022-11-01T21:47:08.453Z,96340.28
2022-11-01T21:49:36.615Z,96344.63
2022-11-01T21:52:06.634Z,96342.97
2022-11-01T21:54:37.243Z,96339.88
2022-11-01T21:57:06.888Z,96338.97
2022-11-01T21:59:34.241Z,96343.66
2022-11-01T22:02:02.310Z,96334.97
2022-11-01T22:04:31.236Z,96338.09
2022-11-01T22:07:00.421Z,96343.63
2022-11-01T22:09:27.827Z,96338.03
2022-11-01T22:11:54.920Z,96339.94
2022-11-01T22:14:22.441Z,96338.97
2022-11-01T22:16:49.503Z,96342.78
2022-11-01T22:19:16.609Z,96341.91
2022-11-01T22:24:15.862Z,96344.16
2022-11-01T22:26:42.942Z,96339.25
2022-11-01T22:29:10.036Z,96341.19
2022-11-01T22:31:37.092Z,96341.19
2022-11-01T22:34:04.162Z,96334.88
2022-11-01T22:36:37.491Z,96336.78
2022-11-01T22:39:30.919Z,96331.50
2022-11-01T22:41:58.007Z,96327.16
2022-11-01T22:44:27.009Z,96326.75
2022-11-01T22:46:58.934Z,96325.88
2022-11-01T22:49:41.841Z,96329.91
2022-11-01T22:52:15.715Z,96327.16
2022-11-01T22:54:47.432Z,96333.19
2022-11-01T22:57:17.879Z,96325.28
2022-11-01T22:59:53.208Z,96322.00
2022-11-01T23:02:31.549Z,96322.75
2022-11-01T23:05:04.702Z,96325.06
2022-11-01T23:07:39.397Z,96318.00
2022-11-01T23:10:22.910Z,96329.22
2022-11-01T23:13:15.598Z,96318.00
2022-11-01T23:15:43.132Z,96320.00
2022-11-01T23:18:16.993Z,96322.66
2022-11-01T23:20:45.313Z,96324.13
2022-11-01T23:23:19.023Z,96308.50
2022-11-01T23:25:46.975Z,96309.97
2022-11-01T23:28:14.911Z,96310.03
2022-11-01T23:30:43.505Z,96309.19
2022-11-01T23:33:17.017Z,96312.72
2022-11-01T23:35:54.229Z,96300.28
2022-11-01T23:38:29.793Z,96296.91
2022-11-01T23:40:57.416Z,96298.94
2022-11-01T23:43:32.916Z,96293.00
2022-11-01T23:46:01.326Z,96283.13
2022-11-01T23:48:29.099Z,96294.19
2022-11-01T23:50:56.548Z,96297.69
2022-11-01T23:53:41.367Z,96293.78
2022-11-01T23:56:09.418Z,96285.50
2022-11-01T23:58:37.754Z,96291.94
